Time;durP1;ratioP1;P1;durP2;ratioP2;P2;SDS_P1;SDS_P2;PMS_P1;PMS_P2;Temp;Humidity;BMP_temperature;BMP_pressure;BME280_temperature;BME280_humidity;BME280_pressure;Samples;Min_cycle;Max_cycle;Signal;HPM_P1;HPM_P2
2022/10/27 00:02:41;;;;;;;12.90;7.32;;;;;;;8.86;100.00;101943.75;10347305;28;20049;-80
2022/10/27 00:07:41;;;;;;;15.93;8.85;;;;;;;8.83;100.00;101944.47;10367047;28;20066;-79
2022/10/27 00:12:42;;;;;;;12.90;7.50;;;;;;;8.86;100.00;101926.41;10365021;28;20050;-79
2022/10/27 00:17:42;;;;;;;16.73;7.15;;;;;;;8.98;100.00;101935.91;10364255;28;20033;-80
2022/10/27 00:22:43;;;;;;;15.48;7.05;;;;;;;9.01;100.00;101939.63;10365509;28;20065;-80
2022/10/27 00:27:43;;;;;;;14.02;6.78;;;;;;;9.07;100.00;101947.03;10364908;28;20098;-81
2022/10/27 00:32:44;;;;;;;15.30;7.03;;;;;;;9.21;100.00;101953.22;10363030;28;20095;-81
2022/10/27 00:37:44;;;;;;;14.57;6.50;;;;;;;9.27;100.00;101952.75;10365385;28;20171;-82
2022/10/27 00:42:45;;;;;;;17.48;8.48;;;;;;;9.30;100.00;101945.13;10364834;28;20120;-83
2022/10/27 00:47:45;;;;;;;14.13;6.82;;;;;;;9.37;100.00;101949.97;10365087;28;20044;-82
2022/10/27 00:52:49;;;;;;;26.52;7.57;;;;;;;9.42;100.00;101950.28;10345184;28;20042;-82
2022/10/27 00:57:50;;;;;;;19.98;7.13;;;;;;;9.51;100.00;101961.38;10364567;28;20034;-82
2022/10/27 01:02:51;;;;;;;14.73;5.73;;;;;;;9.59;100.00;101960.19;10280395;28;20467;-82
2022/10/27 01:07:57;;;;;;;14.80;5.72;;;;;;;9.58;100.00;101955.78;10281342;28;20035;-82
2022/10/27 01:12:57;;;;;;;24.92;9.82;;;;;;;9.60;100.00;101958.50;10266565;28;20035;-82
2022/10/27 01:18:23;;;;;;;26.38;8.52;;;;;;;9.62;100.00;101963.03;10247808;28;20035;-82
2022/10/27 01:23:42;;;;;;;22.27;8.43;;;;;;;9.61;100.00;101960.31;10281708;28;20110;-81
2022/10/27 01:29:08;;;;;;;31.75;9.50;;;;;;;9.57;100.00;101958.31;10263294;28;20034;-82
2022/10/27 01:34:18;;;;;;;19.75;7.18;;;;;;;9.49;100.00;101956.06;10322169;28;20038;-82
2022/10/27 01:39:23;;;;;;;16.00;6.57;;;;;;;9.44;100.00;101957.44;10275213;28;20070;-82
2022/10/27 01:44:35;;;;;;;16.52;6.22;;;;;;;9.31;100.00;101971.34;10313847;28;20118;-82
2022/10/27 01:49:37;;;;;;;13.40;6.00;;;;;;;9.24;100.00;101964.78;10264463;28;20034;-82
2022/10/27 01:54:38;;;;;;;15.52;6.32;;;;;;;9.16;100.00;101967.66;10320640;28;20078;-83
2022/10/27 01:59:59;;;;;;;12.32;5.55;;;;;;;9.10;100.00;101968.13;10301202;28;20176;-82
2022/10/27 02:05:05;;;;;;;15.55;5.72;;;;;;;9.11;100.00;101962.13;10379576;28;20505;-82
2022/10/27 02:10:12;;;;;;;14.60;6.78;;;;;;;9.11;100.00;101949.06;10396721;28;20452;-81
2022/10/27 02:15:32;;;;;;;17.58;8.18;;;;;;;9.13;100.00;101956.97;10386044;28;20034;-81
2022/10/27 02:20:35;;;;;;;17.00;8.65;;;;;;;9.14;100.00;101958.78;10399767;28;20099;-81
2022/10/27 02:25:40;;;;;;;17.67;7.78;;;;;;;9.16;100.00;101954.59;10384514;28;20032;-81
2022/10/27 02:30:40;;;;;;;12.80;8.27;;;;;;;9.19;100.00;101950.50;10344278;28;20111;-81
2022/10/27 02:35:41;;;;;;;17.17;8.88;;;;;;;9.18;100.00;101946.06;10379472;28;20115;-81
2022/10/27 02:40:41;;;;;;;17.40;8.75;;;;;;;9.14;100.00;101946.66;10384266;28;20553;-81
2022/10/27 02:45:42;;;;;;;19.52;8.63;;;;;;;9.15;100.00;101937.09;10396018;28;20029;-82
2022/10/27 02:50:42;;;;;;;21.35;8.75;;;;;;;9.10;100.00;101934.19;10391466;28;20948;-81
2022/10/27 02:55:43;;;;;;;26.50;8.73;;;;;;;9.13;100.00;101936.09;10362580;28;20064;-82
2022/10/27 03:00:43;;;;;;;27.77;10.15;;;;;;;9.17;100.00;101936.44;10399200;28;20038;-83
2022/10/27 03:05:44;;;;;;;15.25;6.95;;;;;;;9.11;100.00;101930.78;10366407;28;20038;-82
2022/10/27 03:10:44;;;;;;;25.38;9.27;;;;;;;9.11;100.00;101928.16;10360753;28;20125;-82
2022/10/27 03:15:45;;;;;;;15.35;7.28;;;;;;;9.15;100.00;101919.75;10357284;28;20030;-81
2022/10/27 03:20:46;;;;;;;22.23;8.10;;;;;;;9.15;100.00;101911.91;10359698;28;20382;-80
2022/10/27 03:25:46;;;;;;;28.88;9.23;;;;;;;9.17;100.00;101914.59;10357161;28;20045;-79
2022/10/27 03:30:47;;;;;;;16.05;7.13;;;;;;;9.09;100.00;101907.13;10359896;28;20172;-81
2022/10/27 03:35:47;;;;;;;17.90;7.57;;;;;;;9.19;100.00;101899.94;10356343;28;20533;-82
2022/10/27 03:40:48;;;;;;;24.30;9.10;;;;;;;9.18;100.00;101906.91;10359817;28;20042;-83
2022/10/27 03:45:48;;;;;;;13.70;6.20;;;;;;;9.04;100.00;101913.75;10355062;28;20038;-83
2022/10/27 03:50:49;;;;;;;23.17;7.57;;;;;;;8.99;100.00;101920.34;10357665;28;20042;-83
2022/10/27 03:55:50;;;;;;;18.17;7.72;;;;;;;8.97;100.00;101914.09;10339891;28;20046;-83
2022/10/27 04:00:50;;;;;;;11.77;5.45;;;;;;;9.08;100.00;101915.78;10357231;28;20046;-84
2022/10/27 04:05:51;;;;;;;14.40;6.78;;;;;;;9.01;100.00;101913.53;10340717;28;20133;-83
2022/10/27 04:10:51;;;;;;;24.20;9.25;;;;;;;8.98;100.00;101908.09;10357335;28;20085;-83
2022/10/27 04:15:52;;;;;;;16.67;7.03;;;;;;;8.99;100.00;101906.41;10356377;28;20041;-85
2022/10/27 04:20:52;;;;;;;18.20;7.90;;;;;;;8.99;100.00;101906.41;10356618;28;20064;-80
2022/10/27 04:25:53;;;;;;;34.95;10.27;;;;;;;8.90;100.00;101904.03;10357281;28;20046;-78
2022/10/27 04:30:53;;;;;;;16.98;6.82;;;;;;;8.87;100.00;101901.19;10364054;28;20034;-79
2022/10/27 04:35:54;;;;;;;21.67;7.30;;;;;;;9.10;100.00;101895.91;10348915;28;20103;-90
2022/10/27 04:40:54;;;;;;;25.67;8.02;;;;;;;8.99;100.00;101901.19;10365174;28;20038;-92
2022/10/27 04:45:55;;;;;;;33.42;6.95;;;;;;;8.94;100.00;101904.38;10346668;28;20072;-90
2022/10/27 04:50:56;;;;;;;15.80;5.68;;;;;;;8.89;100.00;101907.44;10363631;28;20057;-90
2022/10/27 04:55:56;;;;;;;19.65;7.35;;;;;;;8.98;100.00;101907.19;10347515;28;20513;-91
2022/10/27 05:00:57;;;;;;;14.32;6.70;;;;;;;8.92;100.00;101902.44;10361594;28;20149;-89
2022/10/27 05:05:58;;;;;;;24.00;7.88;;;;;;;8.87;100.00;101909.94;10328879;28;20057;-87
2022/10/27 05:10:58;;;;;;;14.90;8.93;;;;;;;9.16;100.00;101890.22;10362243;28;20046;-86
2022/10/27 05:16:00;;;;;;;26.88;8.48;;;;;;;9.25;100.00;101908.22;10342615;28;20113;-90
2022/10/27 05:21:00;;;;;;;16.07;7.37;;;;;;;9.23;100.00;101900.28;10362599;28;20042;-92
2022/10/27 05:26:01;;;;;;;15.27;6.60;;;;;;;9.22;100.00;101900.16;10329660;28;20065;-92
2022/10/27 05:31:02;;;;;;;15.98;7.45;;;;;;;9.15;100.00;101905.75;10359609;28;20129;-91
2022/10/27 05:36:03;;;;;;;33.78;9.07;;;;;;;9.17;100.00;101899.84;10359519;28;20450;-87
2022/10/27 05:41:04;;;;;;;14.60;5.30;;;;;;;9.15;100.00;101905.75;10361451;28;20137;-85
2022/10/27 05:46:05;;;;;;;18.85;6.18;;;;;;;9.19;100.00;101913.00;10363328;28;21167;-90
2022/10/27 05:51:05;;;;;;;19.83;8.38;;;;;;;9.33;100.00;101906.16;10361221;28;20616;-91
2022/10/27 05:56:06;;;;;;;12.02;6.00;;;;;;;9.32;100.00;101907.84;10358878;28;20044;-90
2022/10/27 06:01:07;;;;;;;17.42;6.57;;;;;;;9.51;100.00;101910.03;10357484;28;20129;-93
2022/10/27 06:06:07;;;;;;;63.78;38.17;;;;;;;9.68;100.00;101911.16;10360187;28;20061;-94
2022/10/27 06:11:08;;;;;;;18.65;9.75;;;;;;;9.85;100.00;101908.78;10342064;28;20041;-92
2022/10/27 06:16:08;;;;;;;19.23;9.05;;;;;;;9.91;100.00;101910.94;10357921;28;20072;-92
2022/10/27 06:21:09;;;;;;;14.05;8.55;;;;;;;9.91;100.00;101911.81;10360744;28;20546;-92
2022/10/27 06:26:10;;;;;;;22.45;8.45;;;;;;;10.01;100.00;101905.50;10343225;28;20042;-86
2022/10/27 06:31:10;;;;;;;14.18;8.35;;;;;;;10.12;100.00;101901.91;10358688;28;20049;-89
2022/10/27 06:36:11;;;;;;;15.05;8.10;;;;;;;10.13;100.00;101900.16;10360356;28;20427;-90
2022/10/27 06:41:11;;;;;;;15.85;7.25;;;;;;;10.12;100.00;101898.34;10357807;28;20103;-91
2022/10/27 06:46:12;;;;;;;14.35;7.45;;;;;;;10.08;100.00;101891.09;10359065;28;20034;-90
2022/10/27 06:51:12;;;;;;;13.52;7.05;;;;;;;10.06;100.00;101884.88;10356671;28;20034;-93
2022/10/27 06:56:13;;;;;;;13.82;8.30;;;;;;;10.08;100.00;101885.88;10355778;28;20048;-90
2022/10/27 07:01:13;;;;;;;13.48;6.68;;;;;;;10.19;100.00;101879.66;10342137;28;20090;-92
2022/10/27 07:06:14;;;;;;;10.30;6.10;;;;;;;10.20;100.00;101886.69;10343476;28;20042;-86
2022/10/27 07:11:14;;;;;;;12.52;6.10;;;;;;;10.29;100.00;101889.91;10359810;28;20136;-93
2022/10/27 07:16:15;;;;;;;11.20;6.32;;;;;;;10.37;100.00;101890.41;10346333;28;20042;-94
2022/10/27 07:21:16;;;;;;;8.77;5.05;;;;;;;10.42;100.00;101894.28;10344736;28;20030;-94
2022/10/27 07:26:19;;;;;;;9.13;5.13;;;;;;;10.47;100.00;101891.06;10372910;28;20486;-92
2022/10/27 07:31:19;;;;;;;13.43;5.40;;;;;;;10.47;100.00;101889.31;10361456;28;20042;-94
2022/10/27 07:36:20;;;;;;;12.35;7.15;;;;;;;10.54;100.00;101893.25;10342610;28;20061;-79
2022/10/27 07:41:20;;;;;;;10.02;4.63;;;;;;;10.69;100.00;101888.06;10356626;28;20049;-79
2022/10/27 07:46:21;;;;;;;10.88;3.95;;;;;;;10.74;100.00;101894.50;10357381;28;20049;-78
2022/10/27 07:51:21;;;;;;;18.60;5.07;;;;;;;10.90;100.00;101896.41;10355551;28;20062;-78
2022/10/27 07:56:22;;;;;;;10.82;5.13;;;;;;;11.13;100.00;101896.94;10350925;28;20041;-78
2022/10/27 08:01:22;;;;;;;7.97;4.47;;;;;;;11.31;100.00;101898.06;10356406;28;20562;-80
2022/10/27 08:06:23;;;;;;;17.92;10.38;;;;;;;11.59;100.00;101880.44;10365199;28;20091;-81
2022/10/27 08:11:24;;;;;;;7.38;4.45;;;;;;;11.97;100.00;101876.56;10356387;28;20084;-86
2022/10/27 08:16:25;;;;;;;6.32;2.55;;;;;;;12.33;100.00;101891.75;10363049;28;20029;-86
2022/10/27 08:21:25;;;;;;;8.68;2.97;;;;;;;12.61;100.00;101891.56;10364363;28;20037;-90
2022/10/27 08:26:26;;;;;;;10.57;2.40;;;;;;;13.13;100.00;101892.63;10377510;28;20049;-90
2022/10/27 08:31:26;;;;;;;7.53;3.17;;;;;;;13.59;100.00;101890.63;10363616;28;20034;-85
2022/10/27 08:36:27;;;;;;;8.95;2.30;;;;;;;14.03;100.00;101899.00;10361028;28;20117;-84
2022/10/27 08:42:21;;;;;;;4.68;1.67;;;;;;;14.32;99.92;101874.09;10361477;28;20042;-85
2022/10/27 08:47:22;;;;;;;13.30;4.30;;;;;;;14.74;96.68;101867.28;10322750;28;20045;-84
2022/10/27 08:52:34;;;;;;;4.68;1.38;;;;;;;15.16;89.76;101867.44;10330477;28;20453;-81
2022/10/27 08:57:34;;;;;;;6.50;1.23;;;;;;;15.53;90.21;101866.41;10364148;28;20386;-81
2022/10/27 09:02:47;;;;;;;7.15;1.63;;;;;;;16.03;86.61;101863.25;10345533;28;20117;-80
2022/10/27 09:07:51;;;;;;;;;;;;;;;16.40;83.02;101864.72;10364878;28;20061;-79
2022/10/27 09:13:15;;;;;;;5.00;1.92;;;;;;;16.66;79.82;101853.38;10359814;28;19932;-80
2022/10/27 09:18:39;;;;;;;3.90;1.25;;;;;;;16.87;81.27;101840.97;10345500;28;20133;-81
2022/10/27 09:23:43;;;;;;;8.85;1.83;;;;;;;17.05;78.86;101825.75;10362492;28;20042;-79
2022/10/27 09:28:51;;;;;;;4.20;1.20;;;;;;;17.09;75.50;101819.72;10344458;28;20440;-80
2022/10/27 09:34:02;;;;;;;4.07;1.30;;;;;;;17.41;74.02;101822.63;10349716;28;20042;-82
2022/10/27 09:39:03;;;;;;;4.35;1.55;;;;;;;18.33;73.87;101816.84;10369328;28;20125;-80
2022/10/27 09:44:03;;;;;;;1.35;0.77;;;;;;;20.17;66.13;101804.06;10362478;28;20042;-80
2022/10/27 09:49:04;;;;;;;12.43;2.20;;;;;;;21.81;55.55;101810.81;10342237;28;20049;-83
2022/10/27 09:54:05;;;;;;;5.97;1.58;;;;;;;22.23;56.33;101801.69;10353299;28;20041;-83
2022/10/27 09:59:05;;;;;;;4.18;1.10;;;;;;;22.66;51.83;101808.50;10358057;28;20562;-85
2022/10/27 10:04:09;;;;;;;4.00;0.97;;;;;;;21.74;55.66;101803.59;10344281;28;20445;-87
2022/10/27 10:09:23;;;;;;;4.95;1.45;;;;;;;23.29;50.41;101789.63;10356917;28;20087;-85
2022/10/27 10:14:24;;;;;;;5.32;1.38;;;;;;;24.53;47.62;101778.91;10341457;28;20034;-83
2022/10/27 10:19:24;;;;;;;7.73;1.10;;;;;;;24.37;47.60;101777.94;10360314;28;20049;-86
2022/10/27 10:24:35;;;;;;;7.40;1.50;;;;;;;24.96;48.83;101789.78;10359160;28;20125;-85
2022/10/27 10:29:48;;;;;;;5.70;2.15;;;;;;;24.66;48.73;101782.50;10341795;28;20053;-84
2022/10/27 10:34:52;;;;;;;3.08;2.15;;;;;;;25.06;47.31;101775.53;10327610;28;20104;-84
2022/10/27 10:39:52;;;;;;;3.25;1.40;;;;;;;24.87;46.13;101771.91;10338079;28;20478;-83
2022/10/27 10:45:21;;;;;;;2.57;1.07;;;;;;;25.32;44.67;101776.44;10356569;28;20116;-83
2022/10/27 10:50:21;;;;;;;5.63;1.17;;;;;;;25.16;45.63;101762.16;10322670;28;20131;-83
2022/10/27 10:55:27;;;;;;;5.37;1.30;;;;;;;24.91;47.35;101754.97;10360372;28;20526;-83
2022/10/27 11:00:28;;;;;;;4.85;1.77;;;;;;;24.89;46.46;101750.50;10335797;28;20037;-81
2022/10/27 11:05:33;;;;;;;6.10;1.30;;;;;;;25.19;47.44;101736.25;10357626;28;20045;-82
2022/10/27 11:10:39;;;;;;;8.32;1.65;;;;;;;24.41;46.83;101726.25;10342570;28;20089;-80
2022/10/27 11:15:59;;;;;;;6.72;1.90;;;;;;;24.05;49.39;101729.66;10340277;28;20049;-83
2022/10/27 11:21:13;;;;;;;6.50;1.48;;;;;;;23.51;50.38;101736.41;10357492;28;20571;-82
2022/10/27 11:26:16;;;;;;;2.97;1.50;;;;;;;24.34;49.51;101742.25;10356053;28;20053;-83
2022/10/27 11:31:23;;;;;;;4.07;1.58;;;;;;;24.55;49.32;101715.59;10348309;28;20096;-85
2022/10/27 11:36:38;;;;;;;10.98;1.52;;;;;;;25.04;47.04;101725.53;10354662;28;20512;-84
2022/10/27 11:41:42;;;;;;;5.03;1.23;;;;;;;25.23;47.54;101726.44;10335611;28;20034;-80
2022/10/27 11:47:07;;;;;;;4.15;1.35;;;;;;;25.08;48.08;101719.28;10323421;28;20103;-81
2022/10/27 11:52:18;;;;;;;4.47;1.42;;;;;;;25.31;49.57;101718.41;10354931;28;20077;-80
2022/10/27 11:57:29;;;;;;;6.18;1.63;;;;;;;24.23;50.73;101703.88;10350417;28;20048;-81
2022/10/27 12:03:08;;;;;;;7.57;1.70;;;;;;;23.40;52.55;101705.16;10353453;28;20050;-84
2022/10/27 12:08:30;;;;;;;14.32;2.50;;;;;;;23.36;54.99;101694.44;10356196;28;20050;-84
2022/10/27 12:13:48;;;;;;;6.15;1.33;;;;;;;23.49;54.11;101688.31;10349903;28;20050;-82
2022/10/27 12:18:50;;;;;;;7.38;1.08;;;;;;;22.38;57.91;101686.34;10347479;28;20045;-81
2022/10/27 12:24:04;;;;;;;4.38;2.63;;;;;;;21.66;61.41;101683.63;10355609;28;20057;-81
2022/10/27 12:29:05;;;;;;;7.82;2.75;;;;;;;21.37;62.49;101684.03;10356118;28;20398;-81
2022/10/27 12:34:06;;;;;;;9.70;1.67;;;;;;;21.52;62.64;101678.03;10338757;28;20121;-80
2022/10/27 12:39:31;;;;;;;5.23;1.37;;;;;;;22.28;59.62;101663.13;10298252;28;20442;-81
2022/10/27 12:44:41;;;;;;;6.63;1.90;;;;;;;22.42;60.13;101664.16;10391915;28;20359;-80
2022/10/27 12:49:46;;;;;;;2.85;1.42;;;;;;;22.29;59.38;101662.22;10399641;28;20041;-81
2022/10/27 12:54:53;;;;;;;4.82;1.35;;;;;;;22.23;59.93;101651.50;10386543;28;20397;-81
2022/10/27 13:00:10;;;;;;;5.68;1.77;;;;;;;22.58;58.89;101649.25;10380020;28;20049;-82
2022/10/27 13:05:40;;;;;;;4.82;1.40;;;;;;;22.87;59.60;101639.75;10370502;28;20049;-80
2022/10/27 13:10:51;;;;;;;8.32;1.98;;;;;;;23.61;55.87;101631.38;10359105;28;20073;-81
2022/10/27 13:16:17;;;;;;;5.37;2.43;;;;;;;23.39;56.06;101623.25;10363104;28;20037;-82
2022/10/27 13:21:38;;;;;;;8.60;1.33;;;;;;;24.21;53.95;101625.44;10356556;28;20042;-80
2022/10/27 13:27:07;;;;;;;5.67;1.73;;;;;;;23.92;53.84;101602.13;10355329;28;20054;-82
2022/10/27 13:32:26;;;;;;;8.82;3.38;;;;;;;23.23;59.10;101598.22;10366697;28;21697;-81
2022/10/27 13:37:52;;;;;;;4.57;1.73;;;;;;;22.70;58.79;101589.78;10377105;28;20403;-81
2022/10/27 13:43:03;;;;;;;9.90;2.22;;;;;;;22.62;59.75;101587.91;10357145;28;20042;-81
2022/10/27 13:48:09;;;;;;;7.07;1.80;;;;;;;21.93;61.88;101583.63;10358004;28;20398;-81
2022/10/27 13:53:19;;;;;;;9.32;2.28;;;;;;;21.19;65.47;101586.13;10354713;28;20043;-81
2022/10/27 13:58:22;;;;;;;7.45;1.92;;;;;;;20.81;68.08;101596.19;10378264;28;20045;-81
2022/10/27 14:03:38;;;;;;;7.57;1.85;;;;;;;20.38;71.48;101588.34;10367770;28;20465;-81
2022/10/27 14:08:44;;;;;;;8.55;2.10;;;;;;;20.18;74.25;101598.56;10336343;28;20078;-81
2022/10/27 14:13:49;;;;;;;9.35;2.00;;;;;;;19.88;78.67;101601.50;10344503;28;20045;-81
2022/10/27 14:19:02;;;;;;;6.35;2.10;;;;;;;19.63;81.58;101593.00;10333261;28;20464;-80
2022/10/27 14:24:04;;;;;;;7.05;2.45;;;;;;;19.40;86.09;101595.13;10333117;28;20146;-80
2022/10/27 14:29:06;;;;;;;10.43;2.72;;;;;;;19.22;85.47;101604.44;10375599;28;20048;-81
2022/10/27 14:34:24;;;;;;;7.28;1.92;;;;;;;19.05;83.88;101599.63;10373153;28;20033;-79
2022/10/27 14:39:25;;;;;;;14.13;2.63;;;;;;;18.87;83.61;101593.84;10359743;28;20053;-80
2022/10/27 14:44:30;;;;;;;10.80;2.35;;;;;;;18.69;85.65;101599.59;10344536;28;20435;-80
2022/10/27 14:49:34;;;;;;;13.23;3.45;;;;;;;18.45;90.61;101585.72;10358013;28;20505;-80
2022/10/27 14:54:35;;;;;;;14.73;3.83;;;;;;;18.28;90.33;101582.63;10370461;28;20099;-80
2022/10/27 14:59:35;;;;;;;12.85;3.40;;;;;;;18.15;93.03;101581.38;10357839;28;20034;-80
2022/10/27 15:04:36;;;;;;;6.10;2.40;;;;;;;18.21;91.52;101580.66;10353746;28;20117;-80
2022/10/27 15:09:38;;;;;;;19.67;3.45;;;;;;;18.27;88.74;101572.88;10355512;28;20044;-80
2022/10/27 15:14:39;;;;;;;12.82;2.83;;;;;;;18.26;90.94;101589.63;10357436;28;20046;-81
2022/10/27 15:19:46;;;;;;;14.52;3.55;;;;;;;18.15;89.57;101596.38;10370905;28;20061;-80
2022/10/27 15:24:47;;;;;;;9.05;2.97;;;;;;;18.09;92.23;101610.34;10329867;28;20173;-81
2022/10/27 15:29:50;;;;;;;14.45;3.53;;;;;;;18.07;90.36;101612.06;10340106;28;20266;-80
2022/10/27 15:34:50;;;;;;;17.63;3.45;;;;;;;18.07;91.50;101612.06;10349090;28;20049;-83
2022/10/27 15:39:55;;;;;;;19.00;5.07;;;;;;;18.01;93.96;101617.16;10356019;28;20172;-80
2022/10/27 15:45:17;;;;;;;10.52;3.25;;;;;;;17.85;93.32;101618.47;10341158;28;20441;-81
2022/10/27 15:50:30;;;;;;;8.43;3.40;;;;;;;17.73;92.54;101626.91;10360126;28;20042;-80
2022/10/27 15:55:30;;;;;;;17.85;4.25;;;;;;;17.43;95.36;101638.34;10352175;28;20030;-80
2022/10/27 16:00:31;;;;;;;9.40;3.63;;;;;;;17.19;97.37;101634.06;10355745;28;20046;-80
2022/10/27 16:05:31;;;;;;;10.48;3.90;;;;;;;17.02;98.31;101631.75;10357481;28;20052;-80
2022/10/27 16:10:32;;;;;;;9.10;4.38;;;;;;;16.84;99.36;101625.81;10357925;28;20072;-80
2022/10/27 16:15:32;;;;;;;23.58;4.18;;;;;;;16.77;100.00;101631.75;10358787;28;20052;-80
2022/10/27 16:20:33;;;;;;;15.93;4.85;;;;;;;16.59;100.00;101630.25;10339896;28;20045;-79
2022/10/27 16:25:33;;;;;;;18.83;4.57;;;;;;;16.49;100.00;101630.78;10364091;28;20509;-80
2022/10/27 16:30:34;;;;;;;11.20;5.03;;;;;;;16.36;100.00;101632.09;10346455;28;20465;-79
2022/10/27 16:35:36;;;;;;;11.88;4.32;;;;;;;16.26;100.00;101629.13;10363809;28;20037;-79
2022/10/27 16:40:37;;;;;;;14.55;4.50;;;;;;;16.15;100.00;101633.09;10362762;28;20038;-79
2022/10/27 16:45:38;;;;;;;10.13;5.97;;;;;;;16.07;100.00;101635.44;10363501;28;20104;-80
2022/10/27 16:50:39;;;;;;;15.20;4.63;;;;;;;15.91;100.00;101631.34;10364597;28;20069;-80
2022/10/27 16:55:39;;;;;;;18.58;5.38;;;;;;;15.69;100.00;101635.78;10364684;28;20038;-79
2022/10/27 17:00:40;;;;;;;13.18;5.13;;;;;;;15.49;100.00;101642.88;10363401;28;20580;-79
2022/10/27 17:05:40;;;;;;;11.13;4.20;;;;;;;15.30;100.00;101651.81;10362492;28;20140;-79
2022/10/27 17:10:41;;;;;;;15.07;5.40;;;;;;;15.16;100.00;101645.94;10364383;28;20095;-79
2022/10/27 17:15:41;;;;;;;10.07;4.60;;;;;;;14.96;100.00;101645.13;10363643;28;20165;-80
2022/10/27 17:20:42;;;;;;;15.48;4.45;;;;;;;14.85;100.00;101642.03;10364158;28;20129;-79
2022/10/27 17:25:42;;;;;;;20.05;6.05;;;;;;;14.70;100.00;101647.56;10361976;28;20133;-78
2022/10/27 17:30:43;;;;;;;19.55;6.70;;;;;;;14.57;100.00;101629.41;10360793;28;20449;-81
2022/10/27 17:35:55;;;;;;;24.60;6.57;;;;;;;14.43;100.00;101629.69;10362304;28;20038;-80
2022/10/27 17:40:56;;;;;;;25.00;5.65;;;;;;;14.22;100.00;101629.63;10356996;28;20048;-80
2022/10/27 17:46:04;;;;;;;18.17;6.28;;;;;;;14.15;100.00;101633.72;10352510;28;20042;-80
2022/10/27 17:51:21;;;;;;;18.88;6.03;;;;;;;14.09;100.00;101626.44;10351167;28;20050;-80
2022/10/27 17:56:23;;;;;;;25.25;7.03;;;;;;;13.91;100.00;101623.88;10358194;28;20536;-81
2022/10/27 18:01:25;;;;;;;24.30;5.53;;;;;;;13.74;100.00;101622.19;10360585;28;20457;-81
2022/10/27 18:06:26;;;;;;;17.63;5.03;;;;;;;13.65;100.00;101625.28;10359244;28;20034;-81
2022/10/27 18:11:28;;;;;;;25.73;8.65;;;;;;;13.56;100.00;101619.59;10359938;28;20490;-80
2022/10/27 18:16:29;;;;;;;;;;;;;;;13.47;100.00;101625.31;10359829;28;20132;-80
2022/10/27 18:21:31;;;;;;;15.93;5.72;;;;;;;13.26;100.00;101633.94;10356607;28;19925;-81
2022/10/27 18:26:33;;;;;;;14.73;5.70;;;;;;;13.16;100.00;101627.31;10355846;28;20030;-80
2022/10/27 18:31:37;;;;;;;18.23;5.93;;;;;;;13.04;100.00;101632.88;10359264;28;20048;-80
2022/10/27 18:36:39;;;;;;;20.67;6.22;;;;;;;12.97;100.00;101636.03;10357542;28;20125;-80
2022/10/27 18:41:40;;;;;;;24.20;6.13;;;;;;;12.91;100.00;101625.22;10342861;28;20037;-80
2022/10/27 18:46:40;;;;;;;32.80;9.13;;;;;;;12.89;100.00;101634.75;10359516;28;20034;-80
2022/10/27 18:51:41;;;;;;;15.90;6.75;;;;;;;12.93;100.00;101624.44;10359262;28;20074;-80
2022/10/27 18:56:41;;;;;;;24.48;9.07;;;;;;;12.83;100.00;101627.44;10356454;28;20050;-80
2022/10/27 19:01:42;;;;;;;15.13;7.07;;;;;;;12.69;100.00;101617.94;10360660;28;20137;-80
2022/10/27 19:06:45;;;;;;;17.17;7.35;;;;;;;12.69;100.00;101633.72;10358758;28;20050;-80
2022/10/27 19:11:46;;;;;;;24.13;8.32;;;;;;;12.62;100.00;101630.78;10354787;28;20041;-80
2022/10/27 19:16:47;;;;;;;17.13;8.85;;;;;;;12.52;100.00;101627.59;10357979;28;20117;-80
2022/10/27 19:21:47;;;;;;;29.73;7.95;;;;;;;12.47;100.00;101630.91;10359287;28;20049;-81
2022/10/27 19:26:48;;;;;;;24.65;10.43;;;;;;;12.48;100.00;101629.16;10358460;28;20115;-82
2022/10/27 19:31:48;;;;;;;29.45;8.50;;;;;;;12.42;100.00;101621.88;10355070;28;20041;-80
2022/10/27 19:36:49;;;;;;;35.85;10.05;;;;;;;12.45;100.00;101629.00;10355852;28;20553;-80
2022/10/27 19:41:50;;;;;;;32.17;9.82;;;;;;;12.52;100.00;101620.63;10356531;28;20050;-80
2022/10/27 19:46:53;;;;;;;87.38;55.67;;;;;;;12.61;100.00;101634.22;10358001;28;20133;-79
2022/10/27 19:51:54;;;;;;;53.45;25.92;;;;;;;12.71;100.00;101634.69;10356141;28;20103;-79
2022/10/27 19:56:54;;;;;;;20.58;10.30;;;;;;;12.74;100.00;101627.88;10353435;28;20034;-79
2022/10/27 20:01:55;;;;;;;23.83;9.10;;;;;;;12.72;100.00;101616.41;10367057;28;20068;-79
2022/10/27 20:06:55;;;;;;;23.52;9.32;;;;;;;12.69;100.00;101625.81;10364130;28;20048;-78
2022/10/27 20:11:56;;;;;;;25.30;10.95;;;;;;;12.66;100.00;101625.66;10354737;28;20049;-78
2022/10/27 20:16:57;;;;;;;36.65;11.40;;;;;;;12.65;100.00;101621.25;10347630;28;20045;-78
2022/10/27 20:21:58;;;;;;;21.45;9.20;;;;;;;12.57;100.00;101628.75;10347828;28;20128;-79
2022/10/27 20:26:59;;;;;;;22.05;8.35;;;;;;;12.54;100.00;101628.59;10364417;28;20048;-79
2022/10/27 20:32:00;;;;;;;28.55;10.70;;;;;;;12.54;100.00;101629.47;10364085;28;20052;-78
2022/10/27 20:37:00;;;;;;;27.38;10.38;;;;;;;12.53;100.00;101627.66;10360091;28;20037;-78
2022/10/27 20:42:01;;;;;;;21.30;12.02;;;;;;;12.53;100.00;101618.91;10362386;28;20049;-78
2022/10/27 20:47:01;;;;;;;21.30;9.70;;;;;;;12.61;100.00;101605.31;10363962;28;20037;-78
2022/10/27 20:52:02;;;;;;;26.20;11.65;;;;;;;12.75;100.00;101610.38;10364364;28;20030;-78
2022/10/27 20:57:02;;;;;;;28.50;12.43;;;;;;;12.85;100.00;101594.25;10364288;28;20046;-78
2022/10/27 21:02:03;;;;;;;36.05;11.43;;;;;;;12.92;100.00;101608.63;10364907;28;20042;-78
2022/10/27 21:07:03;;;;;;;33.40;10.77;;;;;;;12.96;100.00;101615.84;10364580;28;20041;-78
2022/10/27 21:12:04;;;;;;;21.13;10.23;;;;;;;13.06;100.00;101609.28;10363814;28;20048;-78
2022/10/27 21:17:05;;;;;;;49.17;11.25;;;;;;;13.09;100.00;101609.44;10360787;28;20066;-78
2022/10/27 21:22:05;;;;;;;21.15;10.70;;;;;;;13.12;100.00;101588.56;10364319;28;20117;-78
2022/10/27 21:27:06;;;;;;;40.22;14.07;;;;;;;13.11;100.00;101589.41;10364418;28;20125;-78
2022/10/27 21:32:06;;;;;;;23.02;10.88;;;;;;;13.13;100.00;101586.84;10363778;28;20030;-78
2022/10/27 21:37:07;;;;;;;24.75;10.88;;;;;;;13.15;100.00;101577.31;10361089;28;20173;-78
2022/10/27 21:42:07;;;;;;;30.92;12.25;;;;;;;13.11;100.00;101580.63;10363900;28;20125;-79
2022/10/27 21:47:08;;;;;;;38.22;13.93;;;;;;;13.10;100.00;101582.34;10362008;28;20046;-80
2022/10/27 21:52:08;;;;;;;20.02;9.27;;;;;;;13.02;100.00;101578.44;10362151;28;20073;-80
2022/10/27 21:57:09;;;;;;;24.10;10.48;;;;;;;13.03;100.00;101570.63;10362269;28;20045;-80
2022/10/27 22:02:09;;;;;;;29.48;10.23;;;;;;;13.13;100.00;101571.97;10402572;28;20044;-80
2022/10/27 22:07:10;;;;;;;32.05;10.52;;;;;;;13.13;100.00;101571.09;10363633;28;20042;-80
2022/10/27 22:12:10;;;;;;;25.52;11.13;;;;;;;13.07;100.00;101566.41;10361909;28;20045;-80
2022/10/27 22:17:11;;;;;;;26.02;12.45;;;;;;;13.17;100.00;101559.91;10362127;28;20091;-80
2022/10/27 22:22:11;;;;;;;21.95;12.00;;;;;;;13.21;100.00;101567.09;10361368;28;20398;-81
2022/10/27 22:27:12;;;;;;;27.52;11.98;;;;;;;13.21;100.00;101562.72;10360304;28;20052;-81
2022/10/27 22:32:12;;;;;;;28.67;12.23;;;;;;;13.26;100.00;101556.78;10359917;28;20044;-81
2022/10/27 22:37:13;;;;;;;28.70;11.38;;;;;;;13.26;100.00;101557.72;10362046;28;20083;-80
2022/10/27 22:42:13;;;;;;;26.30;12.73;;;;;;;13.28;100.00;101545.53;10360143;28;20145;-80
2022/10/27 22:47:14;;;;;;;24.08;10.55;;;;;;;13.28;100.00;101550.78;10360455;28;20136;-80
2022/10/27 22:52:14;;;;;;;29.70;11.15;;;;;;;13.28;100.00;101542.91;10362138;28;20038;-81
2022/10/27 22:57:15;;;;;;;35.90;13.00;;;;;;;13.27;100.00;101537.56;10360241;28;20456;-80